TimeEDT,TemperatureF,Dew PointF,Humidity,Sea Level PressureIn,VisibilityMPH,Wind Direction,Wind SpeedMPH,Gust SpeedMPH,PrecipitationIn,Events,Conditions,WindDirDegrees,DateUTC
12:53 AM,60.1,57.0,90,30.17,5.0,WNW,3.5,-,N/A,,Clear,290,2011-10-11 04:53:00
1:53 AM,57.9,55.9,93,30.17,4.0,West,4.6,-,N/A,,Clear,270,2011-10-11 05:53:00
2:25 AM,57.2,55.4,94,30.17,2.5,Calm,Calm,-,N/A,,Clear,0,2011-10-11 06:25:00
3:15 AM,57.2,55.4,94,30.15,2.5,Calm,Calm,-,N/A,,Clear,0,2011-10-11 07:15:00
3:32 AM,57.2,55.4,94,30.15,3.0,Calm,Calm,-,N/A,,Clear,0,2011-10-11 07:32:00
3:36 AM,55.4,55.4,100,30.15,1.8,West,3.5,-,N/A,,Clear,270,2011-10-11 07:36:00
3:45 AM,55.4,55.4,100,30.15,3.0,West,3.5,-,N/A,,Clear,270,2011-10-11 07:45:00
3:53 AM,57.0,55.0,93,30.15,3.0,Calm,Calm,-,N/A,,Clear,0,2011-10-11 07:53:00
4:25 AM,53.6,53.6,100,30.15,2.5,Calm,Calm,-,N/A,,Clear,0,2011-10-11 08:25:00
4:33 AM,55.4,53.6,94,30.15,0.8,Calm,Calm,-,N/A,,Clear,0,2011-10-11 08:33:00
4:53 AM,55.0,54.0,96,30.15,1.2,Calm,Calm,-,N/A,,Clear,0,2011-10-11 08:53:00
5:02 AM,55.4,53.6,94,30.15,3.0,Calm,Calm,-,N/A,,Clear,0,2011-10-11 09:02:00
5:21 AM,55.4,53.6,94,30.16,2.0,Calm,Calm,-,N/A,,Clear,0,2011-10-11 09:21:00
5:35 AM,53.6,53.6,100,30.16,4.0,West,3.5,-,N/A,,Clear,260,2011-10-11 09:35:00
5:42 AM,51.8,51.8,100,30.16,1.2,West,3.5,-,N/A,,Partly Cloudy,270,2011-10-11 09:42:00
5:50 AM,51.8,51.8,100,30.16,1.0,West,3.5,-,N/A,,Mist,280,2011-10-11 09:50:00
5:53 AM,53.1,52.0,96,30.16,2.5,WNW,3.5,-,N/A,,Partly Cloudy,290,2011-10-11 09:53:00
6:04 AM,53.6,51.8,94,30.16,1.0,Calm,Calm,-,N/A,,Mist,0,2011-10-11 10:04:00
6:13 AM,53.6,53.6,100,30.16,2.0,Calm,Calm,-,N/A,,Clear,0,2011-10-11 10:13:00
6:22 AM,53.6,53.6,100,30.16,3.0,Calm,Calm,-,N/A,,Clear,0,2011-10-11 10:22:00
6:36 AM,53.6,51.8,94,30.16,2.5,Calm,Calm,-,N/A,,Partly Cloudy,0,2011-10-11 10:36:00
6:45 AM,51.8,50.0,94,30.16,1.0,Calm,Calm,-,N/A,,Mist,0,2011-10-11 10:45:00
6:53 AM,52.0,51.1,97,30.16,0.5,Calm,Calm,-,N/A,Fog,Fog,0,2011-10-11 10:53:00
7:10 AM,53.6,51.8,94,30.17,0.2,Calm,Calm,-,N/A,Fog,Fog,0,2011-10-11 11:10:00
7:29 AM,51.8,51.8,100,30.17,1.0,Calm,Calm,-,N/A,,Partly Cloudy,0,2011-10-11 11:29:00
10:53 AM,69.1,55.9,63,30.18,10.0,East,10.4,-,N/A,,Clear,80,2011-10-11 14:53:00
11:53 AM,73.0,54.0,51,30.17,10.0,East,13.8,-,N/A,,Clear,90,2011-10-11 15:53:00
12:53 PM,72.0,55.0,55,30.17,10.0,East,9.2,-,N/A,,Clear,90,2011-10-11 16:53:00
1:53 PM,72.0,55.9,57,30.15,10.0,East,8.1,-,N/A,,Clear,90,2011-10-11 17:53:00
2:53 PM,72.0,55.0,55,30.14,10.0,East,6.9,-,N/A,,Clear,100,2011-10-11 18:53:00
4:53 PM,70.0,57.0,63,30.13,10.0,East,5.8,-,N/A,,Clear,100,2011-10-11 20:53:00
5:53 PM,68.0,55.9,65,30.12,10.0,East,3.5,-,N/A,,Clear,80,2011-10-11 21:53:00
6:53 PM,66.0,57.0,73,30.11,9.0,ENE,5.8,-,N/A,,Clear,70,2011-10-11 22:53:00
7:53 PM,64.9,55.9,73,30.11,10.0,East,4.6,-,N/A,,Clear,80,2011-10-11 23:53:00
8:53 PM,64.0,55.0,73,30.11,10.0,East,5.8,-,N/A,,Clear,90,2011-10-12 00:53:00
9:53 PM,63.0,54.0,72,30.12,10.0,East,4.6,-,N/A,,Overcast,100,2011-10-12 01:53:00
10:53 PM,63.0,50.0,63,30.11,10.0,East,8.1,-,N/A,,Overcast,80,2011-10-12 02:53:00
11:53 PM,63.0,48.9,60,30.13,10.0,SE,8.1,-,N/A,,Overcast,130,2011-10-12 03:53:00